createdAt,value
2022-07-26T00:02:23.940Z,60.47
2022-07-26T00:05:12.392Z,60.67
2022-07-26T00:08:11.679Z,60.68
2022-07-26T00:11:00.127Z,60.73
2022-07-26T00:13:55.613Z,61.16
2022-07-26T00:16:44.236Z,61.18
2022-07-26T00:19:34.077Z,61.43
2022-07-26T00:22:40.018Z,61.55
2022-07-26T00:25:28.701Z,61.64
2022-07-26T00:28:17.277Z,61.53
2022-07-26T00:31:05.992Z,61.26
2022-07-26T00:33:54.420Z,61.49
2022-07-26T00:36:44.574Z,61.62
2022-07-26T00:39:32.985Z,61.69
2022-07-26T00:42:21.341Z,62.33
2022-07-26T00:45:11.723Z,62.51
2022-07-26T00:48:00.175Z,62.43
2022-07-26T00:50:48.692Z,62.39
2022-07-26T00:53:38.473Z,62.98
2022-07-26T00:56:27.928Z,62.88
2022-07-26T00:59:16.318Z,63.45
2022-07-26T01:02:06.241Z,63.57
2022-07-26T01:04:54.746Z,63.27
2022-07-26T01:07:43.444Z,64.19
2022-07-26T01:10:33.584Z,64.04
2022-07-26T01:13:22.174Z,63.38
2022-07-26T01:16:10.627Z,63.84
2022-07-26T01:18:59.152Z,64.06
2022-07-26T01:21:49.389Z,64.52
2022-07-26T01:24:38.185Z,64.39
2022-07-26T01:27:30.694Z,64.48
2022-07-26T01:30:21.978Z,64.10
2022-07-26T01:33:10.371Z,63.44
2022-07-26T01:35:59.520Z,63.11
2022-07-26T01:38:49.380Z,63.38
2022-07-26T01:41:38.573Z,63.79
2022-07-26T01:44:27.013Z,64.28
2022-07-26T01:47:15.416Z,64.17
2022-07-26T01:50:04.580Z,63.75
2022-07-26T01:52:52.941Z,64.14
2022-07-26T01:55:42.762Z,64.23
2022-07-26T01:58:31.093Z,64.46
2022-07-26T02:01:38.824Z,64.66
2022-07-26T02:04:45.828Z,64.77
2022-07-26T02:07:42.521Z,64.66
2022-07-26T02:10:47.116Z,64.30
2022-07-26T02:13:38.489Z,64.88
2022-07-26T02:16:27.005Z,65.31
2022-07-26T02:19:15.450Z,65.19
2022-07-26T02:22:04.079Z,65.36
2022-07-26T02:24:52.885Z,64.98
2022-07-26T02:27:41.324Z,64.90
2022-07-26T02:30:31.124Z,65.11
2022-07-26T02:33:20.429Z,65.23
2022-07-26T02:36:08.848Z,64.73
2022-07-26T02:38:57.171Z,64.30
2022-07-26T02:41:45.583Z,64.73
2022-07-26T02:44:34.958Z,64.48
2022-07-26T02:47:25.623Z,64.28
2022-07-26T02:50:13.998Z,65.20
2022-07-26T02:53:02.413Z,65.00
2022-07-26T02:55:50.754Z,65.19
2022-07-26T02:58:39.515Z,65.61
2022-07-26T03:01:28.288Z,65.64
2022-07-26T03:04:18.039Z,64.87
2022-07-26T03:07:06.419Z,65.95
2022-07-26T03:09:54.964Z,66.36
2022-07-26T03:12:43.876Z,65.84
2022-07-26T03:15:32.513Z,66.46
2022-07-26T03:18:21.106Z,66.56
2022-07-26T03:21:11.000Z,67.00
2022-07-26T03:23:59.391Z,66.42
2022-07-26T03:26:47.862Z,66.73
2022-07-26T03:29:36.477Z,66.67
2022-07-26T03:32:24.803Z,66.43
2022-07-26T03:35:13.092Z,66.91
2022-07-26T03:38:02.830Z,66.59
2022-07-26T03:40:51.320Z,66.60
2022-07-26T03:43:39.801Z,66.34
2022-07-26T03:46:28.393Z,66.17
2022-07-26T03:49:17.500Z,66.47
2022-07-26T03:52:06.660Z,65.85
2022-07-26T03:54:56.559Z,65.45
2022-07-26T03:57:43.906Z,64.98
2022-07-26T04:00:32.320Z,64.79
2022-07-26T04:03:20.901Z,64.85
2022-07-26T04:06:10.342Z,64.75
2022-07-26T04:08:58.703Z,64.78
2022-07-26T04:11:48.975Z,64.79
2022-07-26T04:14:38.702Z,64.94
2022-07-26T04:17:27.146Z,65.04
2022-07-26T04:20:16.715Z,64.88
2022-07-26T04:23:05.261Z,64.02
2022-07-26T04:25:59.969Z,64.20
2022-07-26T04:28:49.943Z,64.02
2022-07-26T04:31:38.278Z,64.29
2022-07-26T04:34:26.818Z,64.30
2022-07-26T04:37:15.285Z,63.73
2022-07-26T04:40:03.926Z,63.08
2022-07-26T04:42:53.096Z,62.98
2022-07-26T04:45:43.038Z,62.68
2022-07-26T04:48:31.682Z,62.10
2022-07-26T04:51:20.806Z,61.82
2022-07-26T04:54:09.624Z,61.57
2022-07-26T04:56:58.218Z,61.47
2022-07-26T04:59:58.113Z,61.09
2022-07-26T05:02:58.378Z,61.53
2022-07-26T05:05:47.219Z,62.30
2022-07-26T05:08:35.761Z,60.88
2022-07-26T05:11:24.089Z,61.25
2022-07-26T05:14:12.471Z,61.91
2022-07-26T05:17:08.927Z,62.02
2022-07-26T05:20:03.150Z,61.41
2022-07-26T05:22:51.848Z,61.53
2022-07-26T05:25:41.610Z,61.60
2022-07-26T05:28:29.947Z,60.96
2022-07-26T05:31:18.419Z,60.58
2022-07-26T05:34:08.375Z,60.34
2022-07-26T05:36:58.430Z,60.36
2022-07-26T05:39:46.862Z,59.83
2022-07-26T05:42:35.182Z,59.76
2022-07-26T05:45:23.862Z,59.72
2022-07-26T05:48:12.423Z,59.44
2022-07-26T05:51:01.301Z,59.48
2022-07-26T05:53:51.090Z,58.82
2022-07-26T05:56:39.582Z,58.17
2022-07-26T05:59:28.139Z,57.21
2022-07-26T06:02:16.799Z,57.19
2022-07-26T06:05:06.080Z,57.59
2022-07-26T06:07:54.543Z,57.93
2022-07-26T06:10:44.317Z,58.39
2022-07-26T06:13:32.739Z,60.62
2022-07-26T06:16:21.232Z,61.25
2022-07-26T06:19:09.581Z,61.09
2022-07-26T06:21:58.157Z,58.95
2022-07-26T06:24:46.589Z,57.28
2022-07-26T06:27:36.243Z,56.76
2022-07-26T06:30:24.766Z,55.43
2022-07-26T06:33:13.221Z,54.99
2022-07-26T06:36:01.632Z,56.06
2022-07-26T06:38:51.436Z,56.61
2022-07-26T06:41:39.915Z,56.13
2022-07-26T06:44:29.709Z,57.15
2022-07-26T06:47:18.126Z,58.07
2022-07-26T06:50:07.742Z,61.64
2022-07-26T06:52:56.160Z,60.73
2022-07-26T06:55:44.491Z,58.88
2022-07-26T06:58:34.231Z,58.92
2022-07-26T07:01:58.243Z,59.46
2022-07-26T07:04:34.612Z,60.54
2022-07-26T07:07:22.994Z,59.58
2022-07-26T07:10:12.734Z,59.70
2022-07-26T07:13:01.148Z,61.45
2022-07-26T07:15:50.107Z,61.19
2022-07-26T07:18:39.782Z,60.49
2022-07-26T07:21:28.544Z,60.13
2022-07-26T07:24:17.190Z,60.40
2022-07-26T07:27:06.106Z,62.05
2022-07-26T07:29:55.091Z,62.04
2022-07-26T07:32:45.121Z,61.36
2022-07-26T07:35:35.488Z,59.67
2022-07-26T07:38:24.563Z,61.30
2022-07-26T07:41:13.000Z,60.49
2022-07-26T07:44:01.549Z,62.07
2022-07-26T07:46:49.961Z,62.34
2022-07-26T07:49:38.323Z,60.12
2022-07-26T07:52:28.132Z,61.68
2022-07-26T07:55:40.722Z,61.62
2022-07-26T07:58:25.075Z,61.83
2022-07-26T08:01:16.622Z,61.87
2022-07-26T08:04:05.129Z,62.61
2022-07-26T08:06:53.757Z,63.48
2022-07-26T08:09:43.673Z,64.11
2022-07-26T08:12:32.178Z,64.71
2022-07-26T08:15:22.028Z,64.90
2022-07-26T08:18:10.761Z,64.80
2022-07-26T08:21:03.514Z,65.27
2022-07-26T08:23:52.485Z,66.76
2022-07-26T08:26:42.460Z,66.47
2022-07-26T08:29:30.930Z,67.81
2022-07-26T08:32:19.351Z,68.94
2022-07-26T08:35:19.869Z,70.23
2022-07-26T08:38:08.535Z,71.14
2022-07-26T08:40:56.999Z,71.84
2022-07-26T08:43:51.637Z,71.20
2022-07-26T08:46:43.157Z,73.31
2022-07-26T08:49:31.672Z,71.65
2022-07-26T08:52:20.117Z,73.78
2022-07-26T08:55:11.045Z,74.26
2022-07-26T08:58:00.568Z,75.03
2022-07-26T09:01:05.251Z,74.43
2022-07-26T09:03:53.709Z,73.85
2022-07-26T09:06:56.583Z,73.56
2022-07-26T09:09:59.257Z,72.81
2022-07-26T09:12:53.772Z,73.38
2022-07-26T09:15:42.207Z,73.44
2022-07-26T09:18:32.997Z,75.41
2022-07-26T09:21:32.567Z,74.94
2022-07-26T09:24:35.159Z,74.99
2022-07-26T09:27:28.100Z,75.98
2022-07-26T09:30:18.082Z,77.56
2022-07-26T09:33:08.680Z,77.06
2022-07-26T09:36:07.693Z,75.83
2022-07-26T09:38:58.710Z,77.04
2022-07-26T09:42:04.819Z,76.87
2022-07-26T09:44:57.202Z,76.70
2022-07-26T09:47:45.765Z,77.13
2022-07-26T09:50:34.872Z,74.85
2022-07-26T09:53:24.667Z,74.99
2022-07-26T09:56:14.264Z,74.79
2022-07-26T09:59:02.834Z,76.66
2022-07-26T10:01:52.992Z,77.41
2022-07-26T10:04:42.586Z,75.57
2022-07-26T10:07:31.459Z,76.17
2022-07-26T10:10:24.581Z,74.76
2022-07-26T10:13:13.140Z,78.19
2022-07-26T10:16:02.075Z,77.94
2022-07-26T10:18:50.523Z,76.77
2022-07-26T10:21:39.472Z,75.87
2022-07-26T10:24:29.244Z,77.82
2022-07-26T10:27:40.021Z,77.80
2022-07-26T10:30:35.110Z,78.82
2022-07-26T10:33:26.931Z,77.92
2022-07-26T10:36:27.742Z,78.79
2022-07-26T10:39:17.555Z,78.00
2022-07-26T10:42:08.026Z,79.30
2022-07-26T10:45:18.372Z,79.67
2022-07-26T10:48:15.651Z,79.71
2022-07-26T10:51:28.450Z,79.13
2022-07-26T10:54:17.874Z,80.29
2022-07-26T10:57:06.361Z,79.45
2022-07-26T10:59:57.536Z,78.49
2022-07-26T11:02:50.719Z,77.51
2022-07-26T11:05:39.441Z,77.67
2022-07-26T11:08:32.473Z,77.90
2022-07-26T11:11:30.831Z,79.63
2022-07-26T11:14:19.823Z,79.86
2022-07-26T11:17:08.725Z,80.77
2022-07-26T11:19:59.195Z,81.06
2022-07-26T11:22:47.649Z,81.68
2022-07-26T11:25:36.149Z,81.29
2022-07-26T11:28:26.502Z,83.55
2022-07-26T11:31:15.946Z,83.18
2022-07-26T11:34:05.763Z,83.19
2022-07-26T11:37:01.289Z,81.75
2022-07-26T11:39:49.767Z,83.24
2022-07-26T11:42:38.275Z,83.54
2022-07-26T11:45:30.237Z,83.78
2022-07-26T11:48:18.678Z,81.97
2022-07-26T11:51:11.596Z,84.14
2022-07-26T11:54:04.740Z,81.53
2022-07-26T11:56:58.158Z,83.09
2022-07-26T11:59:48.653Z,84.36
2022-07-26T12:02:37.116Z,83.33
2022-07-26T12:05:26.422Z,82.30
2022-07-26T12:08:14.981Z,81.77
2022-07-26T12:11:04.903Z,81.60
2022-07-26T12:13:56.701Z,85.36
2022-07-26T12:16:46.467Z,83.64
2022-07-26T12:19:35.727Z,83.12
2022-07-26T12:22:25.767Z,84.89
2022-07-26T12:25:14.326Z,83.79
2022-07-26T12:28:06.921Z,83.70
2022-07-26T12:30:55.444Z,84.49
2022-07-26T12:33:49.288Z,84.45
2022-07-26T12:36:37.736Z,86.16
2022-07-26T12:39:26.089Z,86.57
2022-07-26T12:42:33.034Z,86.81
2022-07-26T12:45:25.833Z,86.54
2022-07-26T12:48:14.475Z,87.76
2022-07-26T12:51:02.874Z,87.91
2022-07-26T12:53:51.281Z,88.38
2022-07-26T12:56:39.704Z,89.55
2022-07-26T12:59:28.320Z,90.44
2022-07-26T13:02:18.989Z,92.41
2022-07-26T13:05:08.599Z,94.07
2022-07-26T13:07:57.191Z,92.21
2022-07-26T13:10:45.690Z,94.27
2022-07-26T13:13:34.191Z,95.29
2022-07-26T13:16:22.737Z,96.87
2022-07-26T13:19:12.484Z,97.71
2022-07-26T13:22:01.935Z,94.46
2022-07-26T13:24:50.540Z,94.92
2022-07-26T13:27:44.290Z,96.76
2022-07-26T13:30:33.352Z,98.28
2022-07-26T13:33:21.858Z,96.53
2022-07-26T13:36:11.629Z,94.70
2022-07-26T13:39:00.150Z,96.59
2022-07-26T13:41:48.517Z,100.00
2022-07-26T13:44:36.976Z,100.00
2022-07-26T13:47:25.311Z,100.00
2022-07-26T13:50:18.420Z,100.00
2022-07-26T13:53:12.738Z,100.00
2022-07-26T13:56:01.194Z,100.00
2022-07-26T13:58:49.606Z,100.00
2022-07-26T14:01:43.579Z,100.00
2022-07-26T14:04:33.346Z,100.00
2022-07-26T14:07:21.693Z,100.00
2022-07-26T14:10:12.150Z,100.00
2022-07-26T14:13:00.709Z,100.00
2022-07-26T14:15:49.090Z,100.00
2022-07-26T14:18:37.668Z,100.00
2022-07-26T14:21:26.788Z,100.00
2022-07-26T14:24:15.185Z,100.00
2022-07-26T14:27:08.264Z,100.00
2022-07-26T14:29:56.715Z,100.00
2022-07-26T14:32:45.265Z,100.00
2022-07-26T14:35:33.810Z,98.76
2022-07-26T14:38:26.777Z,98.56
2022-07-26T14:41:18.211Z,97.38
2022-07-26T14:44:08.546Z,95.93
2022-07-26T14:46:56.968Z,94.91
2022-07-26T14:49:45.394Z,97.03
2022-07-26T14:52:33.913Z,99.21
2022-07-26T14:55:25.541Z,99.86
2022-07-26T14:58:14.234Z,99.36
2022-07-26T15:01:04.154Z,98.28
2022-07-26T15:03:55.261Z,99.46
2022-07-26T15:06:43.630Z,97.11
2022-07-26T15:09:31.985Z,100.00
2022-07-26T15:12:20.358Z,99.07
2022-07-26T15:15:10.183Z,98.66
2022-07-26T15:18:00.084Z,100.00
2022-07-26T15:20:48.599Z,100.00
2022-07-26T15:23:40.083Z,100.00
2022-07-26T15:26:28.408Z,100.00
2022-07-26T15:29:16.836Z,100.00
2022-07-26T15:32:06.655Z,100.00
2022-07-26T15:34:56.459Z,100.00
2022-07-26T15:37:45.338Z,100.00
2022-07-26T15:40:33.831Z,99.60
2022-07-26T15:43:47.985Z,99.22
2022-07-26T15:46:32.339Z,99.28
2022-07-26T15:49:20.881Z,99.19
2022-07-26T15:52:12.533Z,100.00
2022-07-26T15:55:00.947Z,100.00
2022-07-26T15:57:49.554Z,100.00
2022-07-26T16:00:38.025Z,100.00
2022-07-26T16:03:28.506Z,99.98
2022-07-26T16:06:17.039Z,100.00
2022-07-26T16:09:22.944Z,100.00
2022-07-26T16:12:11.666Z,100.00
2022-07-26T16:15:00.137Z,100.00
2022-07-26T16:17:48.513Z,99.84
2022-07-26T16:20:37.226Z,100.00
2022-07-26T16:23:25.629Z,100.00
2022-07-26T16:26:15.337Z,100.00
2022-07-26T16:29:04.089Z,100.00
2022-07-26T16:31:54.707Z,100.00
2022-07-26T16:34:43.035Z,99.61
2022-07-26T16:37:31.525Z,99.00
2022-07-26T16:40:19.887Z,98.52
2022-07-26T16:43:11.991Z,98.42
2022-07-26T16:46:00.641Z,98.09
2022-07-26T16:48:49.133Z,98.44
2022-07-26T16:51:37.488Z,96.61
2022-07-26T16:54:25.781Z,96.47
2022-07-26T16:57:14.164Z,94.44
2022-07-26T17:00:04.233Z,95.07
2022-07-26T17:02:52.651Z,93.56
2022-07-26T17:05:41.031Z,94.16
2022-07-26T17:08:29.480Z,94.15
2022-07-26T17:11:17.987Z,92.75
2022-07-26T17:14:06.425Z,93.12
2022-07-26T17:16:57.966Z,92.86
2022-07-26T17:19:46.383Z,93.48
2022-07-26T17:22:35.055Z,94.02
2022-07-26T17:25:23.607Z,93.88
2022-07-26T17:28:12.263Z,92.68
2022-07-26T17:31:00.614Z,92.41
2022-07-26T17:33:50.684Z,92.13
2022-07-26T17:36:39.073Z,91.94
2022-07-26T17:39:50.773Z,93.55
2022-07-26T17:42:36.163Z,95.58
2022-07-26T17:45:24.531Z,94.38
2022-07-26T17:48:12.924Z,94.62
2022-07-26T17:51:02.728Z,94.07
2022-07-26T17:53:53.406Z,93.94
2022-07-26T17:56:42.079Z,93.06
2022-07-26T17:59:30.581Z,96.03
2022-07-26T18:02:19.186Z,94.65
2022-07-26T18:05:08.074Z,92.86
2022-07-26T18:07:57.979Z,92.55
2022-07-26T18:10:50.878Z,93.84
2022-07-26T18:13:39.821Z,93.36
2022-07-26T18:16:28.414Z,94.53
2022-07-26T18:19:16.903Z,96.37
2022-07-26T18:22:06.463Z,95.98
2022-07-26T18:24:56.479Z,95.12
2022-07-26T18:27:45.092Z,96.15
2022-07-26T18:30:33.546Z,96.29
2022-07-26T18:33:21.968Z,96.80
2022-07-26T18:36:10.437Z,96.32
2022-07-26T18:38:59.942Z,96.68
2022-07-26T18:41:49.646Z,95.03
2022-07-26T18:44:38.495Z,96.01
2022-07-26T18:47:27.002Z,96.07
2022-07-26T18:50:17.218Z,96.60
2022-07-26T18:53:05.977Z,96.59
2022-07-26T18:55:54.450Z,96.75
2022-07-26T18:58:44.323Z,95.94
2022-07-26T19:01:32.770Z,97.06
2022-07-26T19:04:21.520Z,96.43
2022-07-26T19:07:10.250Z,96.32
2022-07-26T19:09:59.231Z,96.02
2022-07-26T19:12:48.596Z,95.20
2022-07-26T19:15:38.359Z,94.43
2022-07-26T19:18:26.728Z,94.48
2022-07-26T19:21:15.187Z,93.24
2022-07-26T19:24:03.526Z,92.79
2022-07-26T19:26:51.969Z,92.31
2022-07-26T19:29:40.405Z,93.45
2022-07-26T19:32:33.477Z,92.79
2022-07-26T19:35:22.186Z,91.57
2022-07-26T19:38:10.574Z,92.67
2022-07-26T19:40:58.986Z,92.86
2022-07-26T19:43:47.820Z,93.20
2022-07-26T19:46:36.411Z,94.09
2022-07-26T19:49:26.382Z,92.89
2022-07-26T19:52:14.913Z,94.74
2022-07-26T19:55:03.460Z,96.02
2022-07-26T19:57:51.865Z,97.17
2022-07-26T20:00:40.345Z,98.53
2022-07-26T20:03:28.900Z,99.90
2022-07-26T20:06:19.252Z,100.00
2022-07-26T20:09:08.271Z,100.00
2022-07-26T20:11:57.069Z,99.44
2022-07-26T20:14:46.441Z,100.00
2022-07-26T20:17:39.182Z,100.00
2022-07-26T20:20:27.508Z,100.00
2022-07-26T20:23:17.206Z,100.00
2022-07-26T20:26:05.559Z,100.00
2022-07-26T20:28:55.398Z,100.00
2022-07-26T20:31:44.257Z,100.00
2022-07-26T20:34:32.662Z,100.00
2022-07-26T20:37:21.176Z,100.00
2022-07-26T20:40:12.763Z,100.00
2022-07-26T20:43:03.864Z,100.00
2022-07-26T20:45:52.425Z,100.00
2022-07-26T20:48:41.255Z,100.00
2022-07-26T20:51:29.637Z,100.00
2022-07-26T20:54:18.249Z,100.00
2022-07-26T20:57:07.926Z,100.00
2022-07-26T20:59:57.180Z,100.00
2022-07-26T21:02:46.468Z,100.00
2022-07-26T21:05:34.923Z,100.00
2022-07-26T21:08:23.286Z,100.00
2022-07-26T21:11:11.707Z,100.00
2022-07-26T21:14:01.429Z,100.00
2022-07-26T21:16:49.876Z,100.00
2022-07-26T21:19:38.442Z,100.00
2022-07-26T21:22:26.902Z,100.00
2022-07-26T21:25:15.423Z,100.00
2022-07-26T21:28:03.747Z,100.00
2022-07-26T21:30:54.194Z,100.00
2022-07-26T21:33:44.721Z,100.00
2022-07-26T21:36:33.326Z,100.00
2022-07-26T21:39:22.086Z,100.00
2022-07-26T21:42:10.660Z,100.00
2022-07-26T21:44:59.082Z,100.00
2022-07-26T21:47:48.816Z,100.00
2022-07-26T21:50:37.229Z,100.00
2022-07-26T21:53:25.625Z,100.00
2022-07-26T21:56:14.138Z,100.00
2022-07-26T21:59:02.498Z,100.00
2022-07-26T22:01:51.138Z,100.00
2022-07-26T22:04:40.992Z,100.00
2022-07-26T22:07:32.191Z,100.00
2022-07-26T22:10:20.747Z,100.00
2022-07-26T22:13:09.305Z,100.00
2022-07-26T22:15:57.812Z,100.00
2022-07-26T22:18:46.190Z,100.00
2022-07-26T22:21:36.150Z,100.00
2022-07-26T22:24:24.549Z,100.00
2022-07-26T22:27:12.997Z,100.00
2022-07-26T22:30:02.313Z,100.00
2022-07-26T22:32:50.687Z,100.00
2022-07-26T22:35:39.009Z,100.00
2022-07-26T22:38:28.850Z,100.00
2022-07-26T22:41:17.337Z,100.00
2022-07-26T22:44:06.051Z,100.00
2022-07-26T22:46:54.708Z,100.00
2022-07-26T22:49:43.236Z,100.00
2022-07-26T22:52:31.697Z,100.00
2022-07-26T22:55:22.215Z,100.00
2022-07-26T22:58:10.591Z,100.00
2022-07-26T23:00:59.070Z,100.00
2022-07-26T23:03:49.755Z,100.00
2022-07-26T23:06:38.990Z,100.00
2022-07-26T23:09:28.678Z,100.00
2022-07-26T23:12:18.538Z,100.00
2022-07-26T23:15:08.385Z,100.00
2022-07-26T23:17:58.223Z,100.00
2022-07-26T23:20:46.703Z,100.00
2022-07-26T23:23:35.119Z,100.00
2022-07-26T23:26:23.819Z,100.00
2022-07-26T23:29:14.086Z,100.00
2022-07-26T23:32:02.767Z,100.00
2022-07-26T23:34:51.144Z,100.00
2022-07-26T23:37:39.630Z,100.00
2022-07-26T23:40:28.000Z,100.00
2022-07-26T23:43:16.469Z,100.00
2022-07-26T23:46:06.239Z,100.00
2022-07-26T23:48:55.454Z,100.00
2022-07-26T23:51:43.954Z,100.00
2022-07-26T23:54:32.372Z,100.00
2022-07-26T23:57:20.875Z,100.00
